Time;durP1;ratioP1;P1;durP2;ratioP2;P2;SDS_P1;SDS_P2;PMS_P1;PMS_P2;Temp;Humidity;BMP_temperature;BMP_pressure;BME280_temperature;BME280_humidity;BME280_pressure;Samples;Min_cycle;Max_cycle;Signal;HPM_P1;HPM_P2
2022/11/09 00:00:20;;;;;;;41.73;23.40;;;;;;;6.82;100.00;99486.94;6186100;23;20173;-82
2022/11/09 00:02:47;;;;;;;41.43;24.20;;;;;;;6.84;100.00;99484.09;6211965;23;20191;-83
2022/11/09 00:05:14;;;;;;;40.17;23.27;;;;;;;6.84;100.00;99478.78;6263439;23;20157;-82
2022/11/09 00:07:41;;;;;;;38.80;21.97;;;;;;;6.85;100.00;99485.75;6237325;23;20179;-82
2022/11/09 00:10:08;;;;;;;42.07;23.73;;;;;;;6.88;100.00;99483.50;6235918;23;20172;-82
2022/11/09 00:12:35;;;;;;;39.27;23.67;;;;;;;6.81;100.00;99481.84;6233429;23;20167;-81
2022/11/09 00:15:03;;;;;;;39.47;21.70;;;;;;;6.81;100.00;99487.16;6233772;23;20223;-82
2022/11/09 00:17:30;;;;;;;36.93;22.43;;;;;;;6.76;100.00;99481.63;6235383;23;20171;-82
2022/11/09 00:19:57;;;;;;;38.93;23.07;;;;;;;6.73;100.00;99477.50;6211808;23;20173;-83
2022/11/09 00:22:24;;;;;;;35.90;21.03;;;;;;;6.82;100.00;99486.94;6211331;23;20194;-83
2022/11/09 00:24:51;;;;;;;38.63;21.33;;;;;;;6.79;100.00;99489.19;6210576;23;20226;-82
2022/11/09 00:27:18;;;;;;;31.73;21.57;;;;;;;6.69;100.00;99484.25;6233951;23;20162;-82
2022/11/09 00:29:45;;;;;;;38.33;21.60;;;;;;;6.71;100.00;99486.72;6208713;23;20227;-82
2022/11/09 00:32:12;;;;;;;36.30;20.97;;;;;;;6.69;100.00;99484.25;6234016;23;20161;-82
2022/11/09 00:34:39;;;;;;;31.73;20.20;;;;;;;6.73;100.00;99488.16;6235682;23;20606;-82
2022/11/09 00:37:09;;;;;;;35.90;21.77;;;;;;;6.70;100.00;99485.88;6237800;23;20224;-83
2022/11/09 00:39:37;;;;;;;36.80;21.27;;;;;;;6.73;100.00;99490.81;6234906;23;20179;-83
2022/11/09 00:42:06;;;;;;;34.33;19.77;;;;;;;6.63;100.00;99485.84;6239145;23;20196;-83
2022/11/09 00:44:35;;;;;;;35.53;21.50;;;;;;;6.69;100.00;99489.56;6268820;23;20176;-82
2022/11/09 00:47:02;;;;;;;34.60;21.27;;;;;;;6.70;100.00;99485.88;6235142;23;20248;-82
2022/11/09 00:49:29;;;;;;;34.20;20.93;;;;;;;6.66;100.00;99487.31;6235488;23;20176;-82
2022/11/09 00:51:56;;;;;;;33.83;21.13;;;;;;;6.68;100.00;99489.75;6240289;23;20213;-82
2022/11/09 00:54:24;;;;;;;34.27;20.27;;;;;;;6.64;100.00;99476.84;6227625;23;20223;-81
2022/11/09 00:56:50;;;;;;;31.43;20.37;;;;;;;6.68;100.00;99485.25;6226025;23;20164;-82
2022/11/09 00:59:18;;;;;;;37.73;20.73;;;;;;;6.64;100.00;99479.50;6251869;23;20153;-81
2022/11/09 01:01:46;;;;;;;42.27;20.90;;;;;;;6.65;100.00;99480.34;6225730;23;20185;-81
2022/11/09 01:04:12;;;;;;;34.30;20.23;;;;;;;6.69;100.00;99478.09;6254000;23;20165;-82
2022/11/09 01:06:39;;;;;;;37.03;21.73;;;;;;;6.68;100.00;99477.25;6205133;23;20157;-81
2022/11/09 01:09:09;;;;;;;36.10;20.00;;;;;;;6.68;100.00;99479.09;6255817;23;20594;-82
2022/11/09 01:11:36;;;;;;;36.80;22.10;;;;;;;6.65;100.00;99472.34;6229030;23;20207;-81
2022/11/09 01:14:02;;;;;;;37.27;21.63;;;;;;;6.70;100.00;99482.41;6204034;23;20221;-82
2022/11/09 01:16:29;;;;;;;35.87;21.30;;;;;;;6.72;100.00;99488.38;6229451;23;20165;-82
2022/11/09 01:18:57;;;;;;;33.97;20.53;;;;;;;6.75;100.00;99491.44;6228135;23;20503;-81
2022/11/09 01:21:25;;;;;;;37.63;22.27;;;;;;;6.74;100.00;99480.97;6248851;23;20240;-81
2022/11/09 01:23:52;;;;;;;39.20;21.83;;;;;;;6.77;100.00;99489.38;6248499;23;20193;-81
2022/11/09 01:26:19;;;;;;;39.93;22.47;;;;;;;6.80;100.00;99486.34;6248813;23;20239;-81
2022/11/09 01:28:46;;;;;;;36.70;21.70;;;;;;;6.79;100.00;99490.03;6248870;23;20192;-81
2022/11/09 01:31:18;;;;;;;37.30;21.80;;;;;;;6.75;100.00;99491.44;6222406;23;20494;-80
2022/11/09 01:33:45;;;;;;;42.10;21.50;;;;;;;6.79;100.00;99489.19;6223420;23;20171;-81
2022/11/09 01:36:14;;;;;;;37.97;21.57;;;;;;;6.79;100.00;99484.69;6223453;23;20176;-81
2022/11/09 01:38:41;;;;;;;39.03;22.27;;;;;;;6.79;100.00;99473.22;6198901;23;20165;-81
2022/11/09 01:41:12;;;;;;;37.10;22.27;;;;;;;6.80;100.00;99473.03;6224020;23;20180;-81
2022/11/09 01:43:38;;;;;;;40.33;21.77;;;;;;;6.80;100.00;99474.88;6198489;23;20208;-81
2022/11/09 01:46:24;;;;;;;40.10;22.23;;;;;;;6.84;100.00;99474.28;6248021;23;20165;-81
2022/11/09 01:48:52;;;;;;;39.10;22.10;;;;;;;6.84;100.00;99482.25;6222757;23;20578;-81
2022/11/09 01:51:26;;;;;;;36.87;21.50;;;;;;;6.87;100.00;99476.53;6249343;23;20235;-81
2022/11/09 01:54:00;;;;;;;37.60;22.10;;;;;;;6.93;100.00;99467.75;6222093;23;20148;-81
2022/11/09 01:56:28;;;;;;;42.27;23.00;;;;;;;6.89;100.00;99466.50;6197115;23;20168;-81
2022/11/09 01:59:03;;;;;;;41.10;23.60;;;;;;;6.87;100.00;99463.22;6196861;23;20176;-81
2022/11/09 02:01:30;;;;;;;40.37;22.43;;;;;;;6.91;100.00;99474.28;6197959;23;20180;-82
2022/11/09 02:04:16;;;;;;;40.33;22.40;;;;;;;6.85;100.00;99470.59;6255493;23;20202;-80
2022/11/09 02:06:43;;;;;;;40.83;22.83;;;;;;;6.87;100.00;99467.72;6196906;23;20169;-81
2022/11/09 02:09:38;;;;;;;38.47;21.70;;;;;;;6.92;100.00;99474.09;6225962;23;20161;-81
2022/11/09 02:12:06;;;;;;;42.37;22.57;;;;;;;6.88;100.00;99467.53;6212898;23;20199;-81
2022/11/09 02:14:34;;;;;;;38.90;22.33;;;;;;;6.95;100.00;99473.69;6221498;23;20169;-81
2022/11/09 02:17:01;;;;;;;38.13;21.43;;;;;;;6.95;100.00;99476.34;6250670;23;20164;-81
2022/11/09 02:19:28;;;;;;;41.03;22.37;;;;;;;6.97;100.00;99458.34;6225890;23;20214;-81
2022/11/09 02:21:55;;;;;;;40.43;21.70;;;;;;;6.94;100.00;99457.91;6252460;23;20188;-81
2022/11/09 02:24:23;;;;;;;38.67;21.33;;;;;;;6.93;100.00;99457.09;6219740;23;20280;-82
2022/11/09 02:26:51;;;;;;;38.73;22.63;;;;;;;6.93;100.00;99459.75;6219974;23;20166;-81
2022/11/09 02:29:21;;;;;;;39.77;20.53;;;;;;;6.94;100.00;99463.25;6194883;23;20170;-81
2022/11/09 02:31:53;;;;;;;37.27;20.63;;;;;;;6.97;100.00;99471.66;6219723;23;20154;-81
2022/11/09 02:34:20;;;;;;;35.77;20.00;;;;;;;7.00;100.00;99465.91;6223489;23;20166;-82
2022/11/09 02:36:49;;;;;;;39.00;20.80;;;;;;;6.95;100.00;99462.22;6183338;23;20166;-82
2022/11/09 02:39:22;;;;;;;36.30;19.50;;;;;;;6.91;100.00;99472.44;6207348;23;20153;-82
2022/11/09 02:42:08;;;;;;;37.20;20.63;;;;;;;6.94;100.00;99465.91;6234995;23;20180;-83
2022/11/09 02:44:43;;;;;;;39.00;19.47;;;;;;;6.90;100.00;99456.69;6186996;23;20169;-82
2022/11/09 02:47:10;;;;;;;35.90;18.80;;;;;;;6.89;100.00;99458.53;6206765;23;20165;-83
2022/11/09 03:24:36;;;;;;;32.13;17.53;;;;;;;6.75;100.00;99459.50;6247410;22;20271;-81
2022/11/09 03:27:03;;;;;;;32.67;18.37;;;;;;;6.77;100.00;99464.59;6198272;23;20245;-82
2022/11/09 03:29:30;;;;;;;30.80;17.67;;;;;;;6.77;100.00;99472.59;6222320;23;20166;-82
2022/11/09 03:31:57;;;;;;;35.70;18.17;;;;;;;6.79;100.00;99475.88;6214983;23;20256;-81
2022/11/09 03:34:24;;;;;;;31.67;17.63;;;;;;;6.75;100.00;99469.31;6216752;23;20165;-81
2022/11/09 03:36:50;;;;;;;31.67;17.97;;;;;;;6.77;100.00;99483.25;6216988;23;20164;-81
2022/11/09 03:39:20;;;;;;;32.10;18.10;;;;;;;6.80;100.00;99480.19;6234870;23;20169;-82
2022/11/09 03:41:47;;;;;;;28.77;17.20;;;;;;;6.77;100.00;99475.25;6232940;23;20165;-81
2022/11/09 03:44:15;;;;;;;33.70;18.57;;;;;;;6.73;100.00;99469.50;6180543;23;20165;-82
2022/11/09 03:46:42;;;;;;;31.27;16.87;;;;;;;6.73;100.00;99477.50;6228927;23;20167;-82
2022/11/09 03:49:10;;;;;;;33.37;18.03;;;;;;;6.71;100.00;99476.06;6228033;23;20170;-82
2022/11/09 03:51:38;;;;;;;30.07;17.47;;;;;;;6.69;100.00;99462.94;6202344;23;20176;-81
2022/11/09 03:54:05;;;;;;;33.67;17.80;;;;;;;6.71;100.00;99473.41;6226465;23;20177;-81
2022/11/09 03:56:32;;;;;;;30.70;17.33;;;;;;;6.72;100.00;99472.38;6227854;23;20157;-82
2022/11/09 03:58:59;;;;;;;31.83;17.67;;;;;;;6.72;100.00;99477.72;6226008;23;20201;-82
2022/11/09 04:01:26;;;;;;;28.67;16.07;;;;;;;6.71;100.00;99471.56;6224773;23;20681;-82
2022/11/09 04:03:52;;;;;;;28.60;15.67;;;;;;;6.67;100.00;99470.31;6220782;23;20567;-81
2022/11/09 04:06:19;;;;;;;32.37;15.63;;;;;;;6.66;100.00;99470.50;6218960;23;20257;-81
2022/11/09 04:08:46;;;;;;;28.97;16.27;;;;;;;6.67;100.00;99467.66;6217880;23;20173;-81
2022/11/09 04:11:18;;;;;;;26.37;15.50;;;;;;;6.70;100.00;99467.25;6218363;23;20153;-81
2022/11/09 04:13:44;;;;;;;29.30;15.83;;;;;;;6.65;100.00;99467.03;6218146;23;20174;-80
2022/11/09 04:16:11;;;;;;;24.50;15.73;;;;;;;6.63;100.00;99456.56;6218056;23;20165;-81
2022/11/09 04:18:38;;;;;;;23.63;15.07;;;;;;;6.55;100.00;99459.41;6218151;23;20161;-82
2022/11/09 04:21:05;;;;;;;25.60;15.43;;;;;;;6.57;100.00;99451.22;6220199;23;20192;-81
2022/11/09 04:23:31;;;;;;;24.43;15.17;;;;;;;6.51;100.00;99458.16;6218558;23;20182;-81
2022/11/09 04:25:58;;;;;;;23.67;15.30;;;;;;;6.44;100.00;99454.63;6216852;23;20283;-81
2022/11/09 04:28:25;;;;;;;22.37;14.10;;;;;;;6.42;100.00;99454.03;6219651;23;20168;-80
2022/11/09 04:30:52;;;;;;;23.07;15.03;;;;;;;6.41;100.00;99448.88;6219778;23;20158;-82
2022/11/09 04:33:18;;;;;;;22.60;14.53;;;;;;;6.39;100.00;99454.38;6217875;23;20199;-81
2022/11/09 04:35:45;;;;;;;21.13;13.97;;;;;;;6.28;100.00;99448.81;6220233;23;20162;-82
2022/11/09 04:38:13;;;;;;;20.57;14.00;;;;;;;6.29;100.00;99448.63;6222207;23;20158;-81
2022/11/09 04:40:40;;;;;;;18.73;14.07;;;;;;;6.16;100.00;99449.34;6197641;23;20252;-81
2022/11/09 04:43:11;;;;;;;21.97;14.03;;;;;;;6.15;100.00;99447.72;6223578;23;20186;-81
2022/11/09 04:45:37;;;;;;;23.43;13.77;;;;;;;6.11;100.00;99437.69;6231421;23;20157;-82
2022/11/09 04:48:06;;;;;;;20.67;13.30;;;;;;;6.09;100.00;99455.66;6229695;23;20169;-81
2022/11/09 04:56:17;;;;;;;22.47;13.33;;;;;;;5.98;100.00;99442.91;6220072;22;20253;-81
2022/11/09 04:58:44;;;;;;;19.20;12.50;;;;;;;6.00;100.00;99452.34;6134333;23;20194;-81
2022/11/09 05:01:12;;;;;;;22.83;13.47;;;;;;;5.97;100.00;99436.75;6160066;23;20163;-82
2022/11/09 05:03:39;;;;;;;19.90;13.63;;;;;;;5.94;100.00;99437.16;6158466;23;20179;-80
2022/11/09 05:08:55;;;;;;;19.43;12.90;;;;;;;5.96;100.00;99442.28;6159673;23;20554;-81
2022/11/09 05:11:22;;;;;;;21.77;13.40;;;;;;;5.91;100.00;99432.22;6157582;23;20163;-81
2022/11/09 05:13:50;;;;;;;21.87;13.10;;;;;;;5.90;100.00;99440.38;6158306;23;20175;-80
2022/11/09 05:16:18;;;;;;;20.50;13.17;;;;;;;5.91;100.00;99450.03;6134242;23;20171;-82
2022/11/09 05:18:45;;;;;;;20.00;12.93;;;;;;;5.86;100.00;99447.09;6160068;23;20161;-81
2022/11/09 05:21:12;;;;;;;18.03;12.93;;;;;;;5.83;100.00;99432.34;6159794;23;20163;-81
2022/11/09 05:26:34;;;;;;;19.23;12.33;;;;;;;5.87;100.00;99449.59;6158957;23;20469;-80
2022/11/09 05:29:04;;;;;;;21.80;13.40;;;;;;;5.85;100.00;99459.56;6158837;23;20161;-81
2022/11/09 05:31:31;;;;;;;19.63;12.67;;;;;;;5.80;100.00;99458.47;6157252;23;20609;-81
2022/11/09 05:33:58;;;;;;;19.10;11.77;;;;;;;5.81;100.00;99447.66;6157689;23;20168;-80
2022/11/09 05:36:26;;;;;;;23.13;12.77;;;;;;;5.83;100.00;99461.59;6158907;23;20188;-81
2022/11/09 05:38:53;;;;;;;18.80;11.93;;;;;;;5.81;100.00;99452.16;6160997;23;20163;-81
2022/11/09 05:41:20;;;;;;;18.27;12.03;;;;;;;5.79;100.00;99449.69;6161233;23;20159;-81
2022/11/09 05:43:47;;;;;;;19.17;12.47;;;;;;;5.78;100.00;99457.88;6159682;23;20274;-80
2022/11/09 05:46:14;;;;;;;18.20;12.23;;;;;;;5.82;100.00;99465.28;6159736;23;20170;-81
2022/11/09 05:48:41;;;;;;;19.77;12.17;;;;;;;5.85;100.00;99469.38;6159078;23;20167;-81
2022/11/09 05:51:09;;;;;;;19.40;12.10;;;;;;;5.86;100.00;99466.53;6159205;23;20170;-81
2022/11/09 05:53:37;;;;;;;19.47;11.77;;;;;;;5.83;100.00;99453.63;6157280;23;20166;-80
2022/11/09 05:56:12;;;;;;;34.50;23.20;;;;;;;5.79;100.00;99457.66;6148544;23;20574;-80
2022/11/09 05:58:40;;;;;;;22.53;14.40;;;;;;;5.80;100.00;99464.63;6103396;23;20187;-80
2022/11/09 06:01:09;;;;;;;33.70;25.50;;;;;;;5.82;100.00;99461.78;6128650;23;20168;-80
2022/11/09 06:03:36;;;;;;;29.33;21.97;;;;;;;5.83;100.00;99480.22;6128882;23;20184;-80
2022/11/09 06:06:05;;;;;;;23.37;17.73;;;;;;;5.86;100.00;99476.34;6128570;23;20168;-83
2022/11/09 06:08:35;;;;;;;20.97;13.80;;;;;;;5.89;100.00;99479.44;6104058;23;20187;-80
2022/11/09 06:11:05;;;;;;;19.23;12.70;;;;;;;5.88;100.00;99475.13;6128481;23;20176;-81
2022/11/09 06:13:32;;;;;;;18.97;12.60;;;;;;;5.94;100.00;99478.88;6128116;23;20160;-80
2022/11/09 06:16:00;;;;;;;18.50;11.97;;;;;;;5.97;100.00;99473.19;6129376;23;20178;-81
2022/11/09 06:18:29;;;;;;;18.30;11.47;;;;;;;5.95;100.00;99473.38;6104067;23;20159;-81
2022/11/09 06:21:00;;;;;;;16.60;11.33;;;;;;;6.00;100.00;99484.25;6129942;23;20548;-80
2022/11/09 06:26:18;;;;;;;17.60;11.47;;;;;;;6.06;100.00;99483.47;6109571;23;20207;-80
2022/11/09 06:28:44;;;;;;;17.83;11.40;;;;;;;6.03;100.00;99483.84;6129344;23;20167;-81
2022/11/09 06:31:13;;;;;;;16.27;11.87;;;;;;;6.04;100.00;99482.84;6130856;23;20159;-80
2022/11/09 06:33:40;;;;;;;16.47;11.07;;;;;;;6.11;100.00;99490.88;6130412;23;20489;-80
2022/11/09 06:36:09;;;;;;;16.87;11.97;;;;;;;6.09;100.00;99479.59;6104802;23;20175;-80
2022/11/09 06:38:35;;;;;;;17.30;11.83;;;;;;;6.12;100.00;99489.84;6106301;23;20179;-80
2022/11/09 06:41:02;;;;;;;18.20;12.07;;;;;;;6.14;100.00;99485.16;6131297;23;20179;-81
2022/11/09 06:43:29;;;;;;;16.77;11.40;;;;;;;6.17;100.00;99482.94;6130283;23;20641;-81
2022/11/09 06:45:56;;;;;;;17.27;11.53;;;;;;;6.24;100.00;99480.31;6131211;23;20171;-80
2022/11/09 06:48:24;;;;;;;15.87;11.70;;;;;;;6.27;100.00;99484.41;6136218;23;20243;-81
2022/11/09 06:50:51;;;;;;;16.93;11.40;;;;;;;6.21;100.00;99472.72;6093549;23;20621;-81
2022/11/09 06:53:19;;;;;;;14.63;10.47;;;;;;;6.27;100.00;99487.91;6122486;23;20231;-82
2022/11/09 12:56:55;;;;;;;16.70;12.27;;;;;;;10.86;100.00;99473.44;6211683;23;20293;-85
2022/11/09 12:59:49;;;;;;;17.20;12.00;;;;;;;10.90;100.00;99469.28;6183755;23;20157;-84
2022/11/09 13:02:56;;;;;;;16.03;11.60;;;;;;;10.97;100.00;99478.84;6185068;23;20189;-87
2022/11/09 13:05:43;;;;;;;15.57;11.60;;;;;;;11.08;100.00;99477.28;6185297;23;20266;-84
2022/11/09 13:08:29;;;;;;;16.30;12.10;;;;;;;11.13;100.00;99480.09;6185058;23;20246;-84
2022/11/09 13:11:35;;;;;;;16.93;12.67;;;;;;;11.19;100.00;99473.03;6184889;23;20165;-84
2022/11/09 13:14:20;;;;;;;16.57;12.43;;;;;;;11.36;100.00;99476.69;6192221;23;20256;-83
2022/11/09 13:17:24;;;;;;;16.40;11.80;;;;;;;11.42;100.00;99473.94;6215145;23;20527;-82
2022/11/09 13:20:46;;;;;;;16.53;13.00;;;;;;;11.48;100.00;99478.34;6215132;23;20165;-87
2022/11/09 13:23:41;;;;;;;17.73;12.90;;;;;;;11.52;100.00;99475.22;6215044;23;20188;-86
2022/11/09 13:26:46;;;;;;;16.50;12.03;;;;;;;11.55;100.00;99482.81;6214866;23;20168;-81
2022/11/09 13:29:37;;;;;;;16.63;12.30;;;;;;;11.51;100.00;99474.41;6215609;23;20567;-83
2022/11/09 13:32:28;;;;;;;15.57;11.80;;;;;;;11.52;100.00;99477.91;6215813;23;20257;-81
2022/11/09 13:35:38;;;;;;;17.67;12.80;;;;;;;11.50;100.00;99483.50;6214529;23;20289;-83
2022/11/09 13:38:30;;;;;;;16.27;11.90;;;;;;;11.44;100.00;99481.72;6214161;23;20254;-83
2022/11/09 13:41:28;;;;;;;16.23;12.77;;;;;;;11.36;100.00;99484.75;6214836;23;20161;-84
2022/11/09 13:44:27;;;;;;;14.53;11.37;;;;;;;11.32;100.00;99481.69;6215280;23;20232;-83
2022/11/09 13:47:21;;;;;;;15.07;11.50;;;;;;;11.32;100.00;99484.38;6214187;23;20217;-84
2022/11/09 13:50:24;;;;;;;15.93;12.00;;;;;;;11.28;100.00;99482.38;6214279;23;20242;-84
2022/11/09 13:53:35;;;;;;;16.67;11.57;;;;;;;11.15;100.00;99478.00;6214326;23;20210;-83
2022/11/09 13:56:30;;;;;;;17.23;12.30;;;;;;;11.10;100.00;99485.09;6219919;23;20607;-83
2022/11/09 13:59:30;;;;;;;16.97;12.17;;;;;;;11.11;100.00;99481.34;6245862;23;20506;-87
2022/11/09 14:02:24;;;;;;;16.23;11.90;;;;;;;11.08;100.00;99482.66;6245411;23;20231;-86
2022/11/09 14:05:32;;;;;;;15.50;12.30;;;;;;;11.14;100.00;99468.34;6223055;23;20261;-84
2022/11/09 14:08:27;;;;;;;15.43;11.13;;;;;;;11.22;100.00;99478.75;6245423;23;20165;-84
2022/11/09 14:11:18;;;;;;;15.37;11.47;;;;;;;11.20;100.00;99482.72;6245248;23;20493;-84
2022/11/09 14:14:17;;;;;;;15.93;12.23;;;;;;;11.12;100.00;99491.03;6245624;23;20238;-81
2022/11/09 14:17:21;;;;;;;15.30;11.63;;;;;;;11.04;100.00;99490.31;6222937;23;20207;-82
2022/11/09 14:20:24;;;;;;;15.80;12.63;;;;;;;10.95;100.00;99499.72;6245649;23;20165;-84
2022/11/09 14:23:17;;;;;;;16.43;12.10;;;;;;;10.92;100.00;99502.84;6245190;23;20164;-84
2022/11/09 14:26:14;;;;;;;16.27;12.03;;;;;;;10.78;100.00;99497.88;6245582;23;20223;-84
2022/11/09 14:29:10;;;;;;;17.67;12.13;;;;;;;10.76;100.00;99490.06;6245798;23;20629;-84
2022/11/09 14:31:55;;;;;;;16.13;12.03;;;;;;;10.77;100.00;99497.06;6245929;23;20165;-82
2022/11/09 14:34:41;;;;;;;14.53;11.43;;;;;;;10.74;100.00;99491.31;6223410;23;20168;-84
2022/11/09 14:37:27;;;;;;;15.83;12.73;;;;;;;10.74;100.00;99483.25;6245833;23;20231;-84
2022/11/09 14:40:21;;;;;;;16.63;12.37;;;;;;;10.70;100.00;99493.63;6245713;23;20157;-84
2022/11/09 14:43:19;;;;;;;18.40;12.93;;;;;;;10.61;100.00;99489.59;6245699;23;20173;-84
2022/11/09 14:46:06;;;;;;;17.10;12.73;;;;;;;10.56;100.00;99486.78;6245694;23;20164;-81
2022/11/09 14:49:01;;;;;;;17.67;12.10;;;;;;;10.50;100.00;99487.66;6245712;23;20160;-82
2022/11/09 14:51:47;;;;;;;16.80;12.73;;;;;;;10.39;100.00;99491.91;6221526;23;20235;-82
2022/11/09 14:54:32;;;;;;;17.13;12.87;;;;;;;10.38;100.00;99492.94;6245706;23;20217;-83
2022/11/09 14:57:17;;;;;;;17.17;12.97;;;;;;;10.31;100.00;99489.50;6193047;23;20335;-83
2022/11/09 15:00:03;;;;;;;17.13;13.23;;;;;;;10.22;100.00;99485.47;6212904;23;20156;-81
2022/11/09 15:02:48;;;;;;;16.90;13.40;;;;;;;10.18;100.00;99483.44;6215495;23;20226;-82
2022/11/09 15:05:38;;;;;;;18.80;13.70;;;;;;;10.12;100.00;99490.50;6215586;23;20164;-82
2022/11/09 15:08:24;;;;;;;16.73;12.70;;;;;;;9.99;100.00;99491.41;6214283;23;20164;-82
2022/11/09 15:11:09;;;;;;;16.83;12.57;;;;;;;9.93;100.00;99486.94;6214305;23;20614;-81
2022/11/09 15:13:54;;;;;;;17.90;13.33;;;;;;;9.89;100.00;99484.94;6214196;23;20509;-81
2022/11/09 15:16:40;;;;;;;16.57;12.30;;;;;;;9.83;100.00;99497.31;6215585;23;20161;-81
2022/11/09 15:19:32;;;;;;;18.37;13.93;;;;;;;9.77;100.00;99500.84;6215475;23;20622;-82
2022/11/09 15:22:36;;;;;;;20.57;15.93;;;;;;;9.69;100.00;99501.94;6214336;23;20204;-81
2022/11/09 15:25:23;;;;;;;18.00;15.20;;;;;;;9.58;100.00;99507.97;6215426;23;20189;-81
2022/11/09 15:28:08;;;;;;;18.33;14.90;;;;;;;9.51;100.00;99509.06;6215409;23;20500;-81
2022/11/09 15:30:53;;;;;;;22.17;16.47;;;;;;;9.46;100.00;99506.22;6215428;23;20208;-81
2022/11/09 15:33:42;;;;;;;21.07;14.87;;;;;;;9.37;100.00;99511.00;6215501;23;20176;-82
2022/11/09 15:36:34;;;;;;;19.73;15.07;;;;;;;9.35;100.00;99513.06;6216027;23;20177;-82
2022/11/09 15:39:21;;;;;;;19.27;14.27;;;;;;;9.31;100.00;99509.19;6214735;23;20543;-82
2022/11/09 15:42:10;;;;;;;20.07;15.03;;;;;;;9.27;100.00;99516.81;6216788;23;20610;-81
2022/11/09 15:44:58;;;;;;;20.40;15.40;;;;;;;9.22;100.00;99511.28;6216099;23;20180;-81
2022/11/09 15:47:54;;;;;;;19.17;14.40;;;;;;;9.16;100.00;99514.00;6217384;23;20200;-81
2022/11/09 15:50:40;;;;;;;18.67;14.47;;;;;;;9.08;100.00;99514.25;6219099;23;20163;-81
2022/11/09 15:53:25;;;;;;;19.10;14.07;;;;;;;9.06;100.00;99514.44;6219227;23;20161;-81
2022/11/09 15:56:22;;;;;;;20.07;14.07;;;;;;;9.08;100.00;99523.06;6220448;23;20160;-82
2022/11/09 15:59:22;;;;;;;18.83;13.93;;;;;;;8.99;100.00;99518.19;6249600;23;20192;-81
2022/11/09 16:02:09;;;;;;;19.80;13.67;;;;;;;8.97;100.00;99526.41;6262435;23;20225;-83
2022/11/09 16:04:55;;;;;;;19.33;17.00;;;;;;;8.99;100.00;99527.03;6221370;23;20477;-83
2022/11/09 16:07:52;;;;;;;18.77;15.23;;;;;;;8.84;100.00;99519.25;6240106;23;20160;-83
2022/11/09 16:10:38;;;;;;;19.80;14.77;;;;;;;8.83;100.00;99539.00;6239719;23;20191;-82
2022/11/09 16:13:24;;;;;;;18.63;14.90;;;;;;;8.83;100.00;99524.81;6263077;23;20164;-82
2022/11/09 16:16:11;;;;;;;20.10;14.67;;;;;;;8.95;100.00;99546.38;6243461;23;20195;-82
2022/11/09 16:18:57;;;;;;;19.63;15.00;;;;;;;8.85;100.00;99546.81;6245660;23;20219;-82
2022/11/09 16:21:42;;;;;;;18.97;13.53;;;;;;;8.76;100.00;99537.38;6267970;23;20625;-82
2022/11/09 16:24:28;;;;;;;18.87;13.50;;;;;;;8.77;100.00;99544.38;6267337;23;20183;-82
2022/11/09 16:27:14;;;;;;;19.33;14.13;;;;;;;8.72;100.00;99538.84;6244376;23;20160;-82
2022/11/09 16:30:19;;;;;;;19.23;13.63;;;;;;;8.68;100.00;99527.72;6249566;23;20161;-82
2022/11/09 16:33:05;;;;;;;18.90;13.93;;;;;;;8.65;100.00;99535.34;6245201;23;20160;-82
2022/11/09 16:35:53;;;;;;;20.90;14.90;;;;;;;8.59;100.00;99530.84;6270865;22;20169;-82
2022/11/09 16:38:43;;;;;;;19.23;14.73;;;;;;;8.56;100.00;99536.59;6253299;23;20175;-82
2022/11/09 16:41:32;;;;;;;18.97;14.13;;;;;;;8.44;100.00;99525.75;6233050;22;20148;-82
2022/11/09 16:44:23;;;;;;;20.17;14.43;;;;;;;8.37;100.00;99531.09;6252995;23;20204;-82
2022/11/09 16:47:12;;;;;;;20.47;15.03;;;;;;;8.31;100.00;99533.75;6211126;23;20163;-82
2022/11/09 16:50:00;;;;;;;19.70;16.17;;;;;;;8.24;100.00;99525.75;6231328;23;20156;-81
2022/11/09 16:52:58;;;;;;;20.23;16.10;;;;;;;8.11;100.00;99522.25;6251394;23;20148;-82
2022/11/09 16:55:44;;;;;;;28.50;21.40;;;;;;;8.05;100.00;99526.56;6273137;23;20163;-82
2022/11/09 16:58:32;;;;;;;24.10;18.73;;;;;;;7.89;100.00;99521.63;6272818;23;20164;-81
2022/11/09 17:01:20;;;;;;;22.30;16.77;;;;;;;7.79;100.00;99524.69;6273008;23;20156;-81
2022/11/09 17:04:09;;;;;;;19.77;15.57;;;;;;;7.69;100.00;99524.31;6251306;23;20191;-82
2022/11/09 17:06:55;;;;;;;21.90;16.30;;;;;;;7.62;100.00;99531.47;6272136;23;20240;-82
2022/11/09 17:09:43;;;;;;;22.30;16.37;;;;;;;7.47;100.00;99528.97;6248451;23;20666;-82
2022/11/09 17:12:30;;;;;;;24.30;17.90;;;;;;;7.42;100.00;99539.41;6246976;23;20160;-82
2022/11/09 17:15:16;;;;;;;23.90;17.53;;;;;;;7.29;100.00;99527.88;6246699;23;20172;-81
2022/11/09 17:18:08;;;;;;;22.43;17.63;;;;;;;7.20;100.00;99532.59;6247692;23;20192;-82
2022/11/09 17:20:54;;;;;;;23.00;17.40;;;;;;;7.09;100.00;99546.50;6247538;23;20164;-82
2022/11/09 17:23:40;;;;;;;23.73;15.83;;;;;;;6.94;100.00;99549.31;6268507;23;20180;-81
2022/11/09 17:26:27;;;;;;;19.93;15.10;;;;;;;6.89;100.00;99554.41;6223966;23;20207;-81
2022/11/09 17:29:13;;;;;;;21.20;15.00;;;;;;;6.77;100.00;99552.47;6244474;23;20229;-82
2022/11/09 17:31:59;;;;;;;19.83;15.00;;;;;;;6.56;100.00;99559.53;6266773;23;20172;-82
2022/11/09 17:34:47;;;;;;;20.73;15.40;;;;;;;6.55;100.00;99560.56;6269293;23;20184;-82
2022/11/09 17:37:35;;;;;;;21.70;15.90;;;;;;;6.47;100.00;99566.03;6271209;23;20244;-83
2022/11/09 17:40:26;;;;;;;19.80;14.93;;;;;;;6.40;100.00;99561.66;6251415;23;20164;-82
2022/11/09 17:43:12;;;;;;;19.33;15.23;;;;;;;6.32;100.00;99567.13;6271592;23;20165;-82
2022/11/09 17:46:13;;;;;;;21.57;16.13;;;;;;;6.30;100.00;99569.19;6269625;23;20187;-82
2022/11/09 17:48:59;;;;;;;22.27;16.83;;;;;;;6.20;100.00;99564.19;6247134;23;20146;-82
2022/11/09 17:51:54;;;;;;;22.97;17.07;;;;;;;6.08;100.00;99557.75;6248547;23;20163;-82
2022/11/09 17:54:43;;;;;;;21.77;16.57;;;;;;;6.02;100.00;99562.00;6245913;23;20226;-82
2022/11/09 17:57:29;;;;;;;28.67;21.00;;;;;;;5.89;100.00;99559.22;6234633;23;20220;-82
2022/11/09 18:00:14;;;;;;;26.57;21.37;;;;;;;5.88;100.00;99554.91;6235046;23;20162;-81
2022/11/09 18:03:03;;;;;;;27.47;19.43;;;;;;;5.76;100.00;99556.41;6235923;23;20205;-82
2022/11/09 18:05:50;;;;;;;27.70;20.83;;;;;;;5.59;100.00;99549.72;6234653;23;20184;-81
2022/11/09 18:08:35;;;;;;;24.20;18.90;;;;;;;5.55;100.00;99553.75;6211823;23;20237;-81
2022/11/09 18:11:20;;;;;;;27.63;19.80;;;;;;;5.51;100.00;99563.94;6232332;23;20168;-82
2022/11/09 18:14:06;;;;;;;27.10;20.97;;;;;;;5.50;100.00;99549.03;6232344;23;20160;-83
2022/11/09 18:16:52;;;;;;;25.37;19.27;;;;;;;5.46;100.00;99545.06;6232709;23;20210;-81
2022/11/09 18:19:39;;;;;;;25.33;20.27;;;;;;;5.30;100.00;99540.00;6234389;23;20227;-81
2022/11/09 18:22:25;;;;;;;27.73;20.63;;;;;;;5.20;100.00;99547.44;6190466;23;20167;-81
2022/11/09 18:25:10;;;;;;;26.47;20.30;;;;;;;5.12;100.00;99555.53;6230774;23;20212;-81
2022/11/09 18:27:56;;;;;;;28.37;22.33;;;;;;;5.05;100.00;99557.28;6230080;23;20188;-81
2022/11/09 18:30:42;;;;;;;31.77;23.93;;;;;;;4.95;100.00;99549.59;6231157;23;20204;-82
2022/11/09 18:33:28;;;;;;;33.30;24.70;;;;;;;4.93;100.00;99553.47;6209131;23;20633;-81
2022/11/09 18:36:28;;;;;;;30.57;24.00;;;;;;;4.84;100.00;99550.91;6234524;23;20180;-81
2022/11/09 18:39:16;;;;;;;31.57;23.47;;;;;;;4.85;100.00;99554.38;6234623;23;20156;-81
2022/11/09 18:42:01;;;;;;;30.53;23.20;;;;;;;4.74;100.00;99545.06;6213874;23;20169;-82
2022/11/09 18:44:50;;;;;;;28.00;22.87;;;;;;;4.85;100.00;99570.31;6213893;23;20188;-81
2022/11/09 18:47:36;;;;;;;29.10;19.80;;;;;;;4.66;100.00;99541.69;6231781;23;20173;-81
2022/11/09 18:50:22;;;;;;;27.20;19.57;;;;;;;4.69;100.00;99551.91;6230399;23;20169;-82
2022/11/09 18:53:07;;;;;;;27.90;19.27;;;;;;;4.63;100.00;99552.63;6182931;23;20165;-81
2022/11/09 18:56:00;;;;;;;25.77;19.27;;;;;;;4.62;100.00;99546.50;6228096;23;20479;-81
2022/11/09 18:58:52;;;;;;;25.77;18.33;;;;;;;4.64;100.00;99551.63;6198182;23;20158;-81